首页
METAR-TAF:

METAR-TAF

机场 :

臺北, 台湾

臺灣桃園國際機場

纬度: 25-05N, 经度: 121-13E, 海拔: 33米

当前天气观测

该预报发布于40分钟前的23:30 UTC
风速9节,风向北转东北
温度 15°C
湿度 94%
气压 1019 hPa
能見度: 6000
少量云层高于600英尺
多云层高于800英尺
多云层高于2000英尺
小雨

METAR: RCTP 242330Z 02009KT 6000 -RA FEW006 BKN008 BKN020 15/14 Q1019 NOSIG RMK A3011

时间: 08:10 (00:10 UTC)

预报

该预报发布于1小时和10分钟前的23:00 UTC
预报有效从25日的 00点(UTC)到 26日的 06点(UTC)
风速10节,风向北转东北
能見度: 6000
散云层高于600英尺
多云层高于1100英尺
多云层高于3000英尺
短暂存在
从 25日的 00点(UTC)到 25日的 03点(UTC)
能見度: 4000
散云层高于300英尺
多云层高于600英尺
多云层高于2000英尺
轻雾
成为
从 25日的 03点(UTC)到 25日的 05点(UTC)
风速15节,风向北转东北
短暂存在
从 25日的 05点(UTC)到 25日的 11点(UTC)
风速20节,风向东北
散云层高于800英尺
多云层高于1800英尺
多云层高于3500英尺
成为
从 25日的 11点(UTC)到 25日的 13点(UTC)
风速20节,风向东北
少量云层高于1000英尺
多云层高于2000英尺
多云层高于4000英尺
短暂存在
从 26日的 00点(UTC)到 26日的 06点(UTC)
少量云层高于1500英尺
多云层高于3200英尺

TAF: RCTP 242300Z 2500/2606 03010KT 6000 SCT006 BKN011 BKN030 TEMPO 2500/2503 4000 BR SCT003 BKN006 BKN020 BECMG 2503/2505 03015KT TEMPO 2505/2511 04020KT SCT008 BKN018 BKN035 BECMG 2511/2513 05020KT FEW010 BKN020 BKN040 TEMPO 2600/2606 FEW015 BKN032

超过4000个机场的气象观测和天气预报(METAR&TAF报告)。

可查询的气象台以黄色和红色小点在地图上表示。

将鼠标移到小点上方,可查看气象台名称。

然后点击查看天气观测和预报。

如需切换地图:点击带黑十字的绿色按钮放大地图;点击带横线的绿色按钮缩小地图;或者点击绿色箭头查看邻近地区的地图。


METAR-TAF: